Time;durP1;ratioP1;P1;durP2;ratioP2;P2;SDS_P1;SDS_P2;PMS_P1;PMS_P2;Temp;Humidity;BMP_temperature;BMP_pressure;BME280_temperature;BME280_humidity;BME280_pressure;Samples;Min_cycle;Max_cycle;Signal;HPM_P1;HPM_P2
2022/01/25 00:25:18;;;;;;;19.17;10.83;;;1.60;96.40;;;2.09;65.19;99080.63;5107439;28;20051;-40
2022/01/25 00:27:53;;;;;;;18.23;11.90;;;1.60;96.30;;;2.09;65.60;99078.00;5108550;28;20039;-40
2022/01/25 00:30:43;;;;;;;20.67;10.83;;;1.60;96.20;;;2.04;65.24;99077.41;5107852;28;20253;-40
2022/01/25 00:33:11;;;;;;;15.10;11.03;;;1.50;96.30;;;1.95;65.20;99078.66;5108626;28;20438;-40
2022/01/25 00:35:38;;;;;;;16.63;10.87;;;1.40;97.30;;;1.95;65.42;99078.66;5107366;28;20249;-40
2022/01/25 00:38:06;;;;;;;18.53;11.57;;;1.40;97.50;;;1.92;65.69;99081.41;5107623;28;20047;-40
2022/01/25 00:40:34;;;;;;;19.73;12.63;;;1.40;96.60;;;1.89;65.91;99077.16;5108567;28;20065;-40
2022/01/25 00:43:02;;;;;;;16.60;10.43;;;1.40;97.30;;;1.89;65.66;99084.22;5107420;28;20047;-40
2022/01/25 00:45:30;;;;;;;20.40;11.03;;;1.40;97.30;;;1.85;65.68;99088.75;5106974;28;20342;-40
2022/01/25 00:48:02;;;;;;;16.70;10.10;;;1.30;96.60;;;1.82;65.82;99088.03;5107552;28;20055;-40
2022/01/25 00:50:40;;;;;;;16.37;10.77;;;1.20;96.70;;;1.75;65.26;99088.31;5106447;28;20353;-40
2022/01/25 00:55:35;;;;;;;15.60;10.20;;;1.10;97.60;;;1.66;65.86;99085.25;5106888;28;20043;-40
2022/01/25 00:58:03;;;;;;;16.30;9.93;;;1.00;96.80;;;1.63;65.44;99083.66;5107332;28;20234;-40
2022/01/25 01:00:31;;;;;;;21.77;10.47;;;1.00;97.80;;;1.60;65.66;99082.94;5108318;28;20198;-40
2022/01/25 01:02:59;;;;;;;18.60;10.50;;;1.00;97.20;;;1.55;65.22;99081.38;5106895;28;20059;-40
2022/01/25 01:05:27;;;;;;;17.37;10.40;;;1.00;96.10;;;1.52;65.66;99081.50;5106971;28;20578;-39
2022/01/25 01:08:15;;;;;;;16.83;10.03;;;0.90;97.60;;;1.50;65.76;99080.72;5107470;28;20367;-39
2022/01/25 01:10:43;;;;;;;20.40;10.50;;;0.90;96.70;;;1.46;65.85;99068.66;5107090;28;20655;-39
2022/01/25 01:16:29;;;;;;;20.10;10.53;;;0.90;96.90;;;1.42;65.87;99080.22;5106166;28;20051;-39
2022/01/25 01:40:48;;;;;;;18.23;10.90;;;0.80;97.80;;;1.27;65.78;99086.97;5105110;28;20257;-39
2022/01/25 01:49:00;;;;;;;20.17;12.93;;;0.70;98.40;;;1.24;65.72;99091.50;5106269;28;20062;-40
2022/01/25 01:51:32;;;;;;;18.40;10.77;;;0.70;99.00;;;1.25;65.64;99082.72;5106424;28;20246;-40
2022/01/25 01:54:14;;;;;;;15.23;10.67;;;0.80;99.00;;;1.26;65.68;99087.03;5107287;28;20051;-40
2022/01/25 01:56:44;;;;;;;22.03;11.73;;;0.80;99.10;;;1.28;65.72;99082.56;5107000;28;20048;-40
2022/01/25 01:59:16;;;;;;;21.00;11.70;;;0.80;98.60;;;1.29;65.74;99086.91;5106284;28;20246;-40
2022/01/25 02:01:46;;;;;;;16.53;10.63;;;0.80;98.00;;;1.30;65.90;99080.72;5107186;28;20049;-40
2022/01/25 02:04:17;;;;;;;18.13;11.30;;;0.70;97.70;;;1.32;65.91;99078.94;5105843;28;20262;-40
2022/01/25 02:06:45;;;;;;;15.67;11.33;;;0.90;97.50;;;1.32;65.56;99085.03;5107744;28;20047;-40
2022/01/25 02:09:13;;;;;;;19.97;11.47;;;0.90;97.10;;;1.32;65.56;99078.94;5106727;28;20059;-40
2022/01/25 02:11:42;;;;;;;15.37;10.80;;;0.90;96.20;;;1.31;65.89;99079.84;5107744;28;20055;-40
2022/01/25 02:14:13;;;;;;;19.37;11.40;;;0.80;95.50;;;1.28;65.42;99079.94;5106706;28;20067;-40
2022/01/25 02:24:46;;;;;;;19.47;12.10;;;0.70;96.00;;;1.20;65.51;99077.66;5106872;28;20058;-40
2022/01/25 02:27:15;;;;;;;21.80;11.97;;;0.70;96.20;;;1.20;65.81;99079.44;5107296;28;20056;-40
2022/01/25 02:29:43;;;;;;;21.30;12.17;;;0.70;96.10;;;1.20;65.71;99074.19;5106121;28;20063;-40
2022/01/25 02:32:13;;;;;;;15.03;10.73;;;0.70;96.30;;;1.20;65.73;99080.28;5106884;28;20373;-40
2022/01/25 02:34:42;;;;;;;18.50;12.13;;;0.80;96.00;;;1.19;65.85;99068.09;5105611;28;20369;-40
2022/01/25 02:37:14;;;;;;;17.87;11.33;;;0.70;95.40;;;1.18;65.64;99076.88;5105766;28;20051;-40
2022/01/25 02:39:42;;;;;;;20.37;11.53;;;0.70;95.20;;;1.16;65.76;99081.34;5105868;28;20254;-40
2022/01/25 02:42:15;;;;;;;18.03;10.80;;;0.60;95.00;;;1.13;65.69;99076.25;5099998;28;20254;-41
2022/01/25 02:44:44;;;;;;;19.97;11.30;;;0.60;95.70;;;1.11;65.72;99076.31;5064772;28;20068;-40
2022/01/25 02:50:00;;;;;;;16.23;10.17;;;0.60;95.80;;;1.08;65.86;99073.81;5067500;28;20054;-40
2022/01/25 02:52:29;;;;;;;18.10;11.53;;;0.60;94.80;;;1.07;65.44;99066.03;5069470;28;20048;-40
2022/01/25 02:54:57;;;;;;;17.77;10.33;;;0.60;95.50;;;1.10;65.98;99069.34;5068906;28;20051;-40
2022/01/25 02:57:26;;;;;;;20.40;11.90;;;0.60;96.30;;;1.14;66.13;99067.44;5070107;28;20449;-40
2022/01/25 02:59:53;;;;;;;18.83;11.30;;;0.70;97.20;;;1.16;65.65;99070.84;5069246;28;20102;-40
2022/01/25 03:02:21;;;;;;;20.10;10.80;;;0.70;97.00;;;1.14;65.86;99067.44;5068911;28;20049;-40
2022/01/25 03:04:49;;;;;;;21.53;12.43;;;0.70;96.60;;;1.13;65.71;99057.88;5069017;28;20054;-40
2022/01/25 03:07:17;;;;;;;19.23;12.43;;;0.70;96.30;;;1.11;65.44;99064.97;5067530;28;20048;-40
2022/01/25 03:09:45;;;;;;;19.47;11.67;;;0.60;96.70;;;1.09;65.90;99067.66;5069920;28;20270;-40
2022/01/25 03:12:18;;;;;;;20.83;12.70;;;0.50;98.30;;;1.07;66.08;99066.88;5068705;28;20377;-40
2022/01/25 03:15:02;;;;;;;22.07;12.50;;;0.50;99.90;;;1.07;66.31;99060.78;5066885;28;20049;-40
2022/01/25 03:17:31;;;;;;;20.25;11.77;;;0.50;99.90;;;1.05;66.46;99059.97;5069241;28;20056;-40
2022/01/25 03:20:06;;;;;;;20.40;11.50;;;0.50;99.90;;;1.05;66.46;99062.59;5068829;28;20232;-40
2022/01/25 03:22:56;;;;;;;21.83;13.40;;;0.50;99.90;;;1.03;66.85;99060.06;5068587;28;20056;-40
2022/01/25 03:25:26;;;;;;;23.53;12.77;;;0.40;99.90;;;1.04;66.67;99055.66;5068716;28;20056;-40
2022/01/25 03:27:55;;;;;;;20.97;12.70;;;0.50;99.90;;;1.04;66.33;99060.91;5087193;28;20058;-40
2022/01/25 03:30:24;;;;;;;20.83;12.30;;;0.50;99.90;;;1.05;66.30;99052.09;5088463;28;20525;-40
2022/01/25 03:32:52;;;;;;;19.97;12.23;;;0.60;99.90;;;1.06;66.56;99054.66;5089031;28;20257;-40
2022/01/25 03:35:20;;;;;;;24.17;13.43;;;0.60;99.90;;;1.06;66.55;99051.19;5088412;28;20056;-40
2022/01/25 03:37:48;;;;;;;20.50;11.90;;;0.60;99.90;;;1.06;66.79;99046.81;5088275;28;20052;-40
2022/01/25 03:40:18;;;;;;;19.77;11.83;;;0.60;99.90;;;1.07;67.07;99045.91;5087609;28;20050;-40
2022/01/25 03:42:48;;;;;;;22.67;13.00;;;0.60;99.90;;;1.05;66.94;99042.50;5088565;28;20058;-40
2022/01/25 03:45:21;;;;;;;21.00;12.70;;;0.60;99.90;;;1.05;66.87;99039.00;5088648;28;20366;-40
2022/01/25 03:50:48;;;;;;;33.37;18.00;;;0.50;99.90;;;1.02;66.68;99037.38;5068992;28;20399;-40
2022/01/25 03:53:18;;;;;;;40.63;21.00;;;0.50;99.90;;;1.02;66.89;99036.53;5089123;28;20051;-40
2022/01/25 03:55:48;;;;;;;40.23;22.33;;;0.50;99.90;;;1.07;67.48;99037.19;5088924;28;20354;-40
2022/01/25 03:58:16;;;;;;;24.97;15.30;;;0.60;99.90;;;1.09;67.46;99035.34;5087692;28;20074;-40
2022/01/25 04:00:44;;;;;;;32.90;18.10;;;0.60;99.90;;;1.08;67.40;99034.47;5088256;28;20046;-40
2022/01/25 04:03:18;;;;;;;31.67;16.87;;;0.60;99.90;;;1.09;67.00;99032.72;5088707;28;20040;-40
2022/01/25 04:08:15;;;;;;;24.27;14.13;;;0.60;99.90;;;1.08;66.91;99044.13;5087412;28;20056;-40
2022/01/25 04:10:43;;;;;;;26.97;16.57;;;0.50;99.90;;;1.06;66.73;99044.19;5086517;28;20060;-40
2022/01/25 04:13:11;;;;;;;24.63;14.37;;;0.50;99.90;;;1.07;66.95;99045.06;5087164;28;20070;-40
2022/01/25 04:15:43;;;;;;;24.40;13.60;;;0.50;99.90;;;1.02;66.78;99045.22;5087018;28;20380;-40
2022/01/25 04:26:20;;;;;;;142.30;54.88;;;0.50;99.90;;;1.03;66.93;99041.72;5058430;28;20067;-40
2022/01/25 04:28:48;;;;;;;115.80;52.17;;;0.60;99.90;;;1.07;67.22;99035.41;5067320;28;20063;-40
2022/01/25 04:31:18;;;;;;;75.97;38.23;;;0.60;99.90;;;1.11;66.91;99036.97;5067114;28;20052;-40
2022/01/25 04:34:07;;;;;;;38.50;21.30;;;0.70;99.90;;;1.12;66.75;99033.41;5066278;28;20242;-42
2022/01/25 04:48:50;;;;;;;27.90;16.50;;;0.70;99.90;;;1.14;67.15;99021.09;5067513;28;20054;-40
2022/01/25 04:53:11;;;;;;;20.30;13.23;;;0.70;99.90;;;1.19;67.01;99020.88;5068044;28;20350;-40
2022/01/25 04:55:56;;;;;;;28.80;18.17;;;0.80;99.90;;;1.19;66.85;99020.88;5067241;28;20048;-40
2022/01/25 04:58:36;;;;;;;22.87;13.73;;;0.80;99.90;;;1.18;66.57;99022.66;5066535;28;20044;-40
2022/01/25 05:01:04;;;;;;;21.43;13.10;;;0.80;99.90;;;1.15;66.89;99019.31;5066859;28;20246;-40
2022/01/25 05:03:51;;;;;;;22.40;13.60;;;0.70;99.90;;;1.03;66.54;99025.97;5066598;28;20062;-40
2022/01/25 05:06:20;;;;;;;22.63;12.13;;;0.50;99.90;;;0.91;67.19;99024.75;5067017;28;20040;-40
2022/01/25 05:08:52;;;;;;;24.33;14.20;;;0.40;99.90;;;0.88;67.17;99024.00;5065544;28;20060;-40
2022/01/25 05:14:12;;;;;;;20.30;12.27;;;0.40;99.90;;;0.74;66.95;99027.25;5049176;28;20058;-40
2022/01/25 05:16:49;;;;;;;19.17;12.77;;;0.20;99.90;;;0.73;67.25;99034.22;5047953;28;20044;-40
2022/01/25 05:24:52;;;;;;;17.85;10.88;;;0.20;99.90;;;0.71;66.95;99029.97;5021144;28;20067;-40
2022/01/25 05:27:26;;;;;;;20.83;11.60;;;0.20;99.90;;;0.73;67.30;99028.97;5066398;28;20247;-40
2022/01/25 05:29:54;;;;;;;19.07;11.57;;;0.30;99.90;;;0.71;67.04;99027.34;5065284;28;20064;-40
2022/01/25 05:32:23;;;;;;;20.30;12.07;;;0.20;99.90;;;0.67;67.58;99039.75;5066804;28;20052;-40
2022/01/25 05:34:51;;;;;;;20.60;11.50;;;0.20;99.90;;;0.65;66.89;99033.72;5066204;28;20040;-39
2022/01/25 05:37:19;;;;;;;18.40;12.30;;;0.20;99.90;;;0.64;66.81;99034.66;5065801;28;20044;-40
2022/01/25 05:39:49;;;;;;;20.07;12.17;;;0.20;99.90;;;0.62;67.06;99030.38;5065925;28;20074;-40
2022/01/25 05:45:12;;;;;;;20.43;11.60;;;0.10;99.90;;;0.58;67.41;99034.88;5065909;28;20063;-40
2022/01/25 05:47:42;;;;;;;19.17;11.73;;;0.10;99.90;;;0.59;66.77;99036.59;5067064;28;20048;-40
2022/01/25 05:50:13;;;;;;;17.23;11.67;;;0.20;99.90;;;0.54;66.82;99033.31;5065921;28;20062;-40
2022/01/25 05:52:41;;;;;;;20.47;11.10;;;0.10;99.90;;;0.49;66.61;99040.53;5065260;28;20058;-40
2022/01/25 05:55:10;;;;;;;18.93;12.03;;;0.00;99.90;;;0.50;66.79;99040.44;5064698;28;20052;-40
2022/01/25 05:57:38;;;;;;;16.93;10.93;;;0.00;99.90;;;0.52;67.39;99043.00;5065049;28;20059;-40
2022/01/25 06:00:08;;;;;;;21.43;11.00;;;0.00;99.90;;;0.56;66.86;99047.19;5065874;28;20052;-40
2022/01/25 06:02:36;;;;;;;18.67;10.73;;;0.10;99.90;;;0.60;66.88;99043.53;5064521;28;20365;-40
2022/01/25 06:05:05;;;;;;;21.57;12.80;;;0.20;99.90;;;0.62;67.03;99049.59;5065385;28;20052;-40
2022/01/25 06:07:33;;;;;;;21.50;13.57;;;0.20;99.90;;;0.64;66.78;99052.13;5066186;28;20195;-40
2022/01/25 06:10:02;;;;;;;19.13;11.97;;;0.30;99.90;;;0.64;66.87;99050.38;5064797;28;20249;-40
2022/01/25 06:12:30;;;;;;;19.47;11.37;;;0.20;99.90;;;0.62;66.64;99056.56;5066528;28;20242;-40
2022/01/25 06:14:58;;;;;;;21.10;12.27;;;0.20;99.90;;;0.60;66.72;99054.00;5064217;28;20254;-40
2022/01/25 06:17:26;;;;;;;20.37;12.60;;;0.20;99.90;;;0.55;66.42;99054.22;5066224;28;20063;-39
2022/01/25 06:19:53;;;;;;;21.67;13.00;;;0.10;99.90;;;0.49;66.29;99056.25;5064764;28;20331;-39
2022/01/25 06:22:22;;;;;;;21.13;12.70;;;0.00;99.90;;;0.49;66.80;99061.50;5066094;28;20055;-39
2022/01/25 06:24:50;;;;;;;21.50;12.33;;;0.00;99.90;;;0.48;66.93;99057.16;5067327;28;20365;-39
2022/01/25 06:27:18;;;;;;;22.17;13.10;;;0.00;99.90;;;0.48;66.72;99075.50;5069630;28;20058;-39
2022/01/25 06:29:47;;;;;;;20.30;12.47;;;0.00;99.90;;;0.46;66.08;99074.72;5069516;28;20043;-40
2022/01/25 06:32:16;;;;;;;20.07;12.23;;;0.00;99.90;;;0.44;66.62;99073.91;5069350;28;20052;-40
2022/01/25 06:34:44;;;;;;;23.63;12.13;;;0.00;99.90;;;0.39;66.37;99071.50;5068585;28;20350;-40
2022/01/25 06:37:13;;;;;;;20.63;13.27;;;-0.10;99.90;;;0.35;66.21;99076.00;5069393;28;20050;-40
2022/01/25 06:39:43;;;;;;;22.17;12.27;;;-0.10;99.90;;;0.36;66.35;99082.09;5068472;28;20044;-40
2022/01/25 06:42:11;;;;;;;21.87;12.50;;;-0.10;99.90;;;0.34;66.30;99089.16;5088383;28;20701;-40
2022/01/25 06:44:39;;;;;;;20.73;11.73;;;-0.20;99.90;;;0.27;66.10;99091.19;5088523;28;20051;-40
2022/01/25 06:47:07;;;;;;;18.60;10.40;;;-0.30;99.90;;;0.24;66.48;99096.53;5087961;28;20060;-40
2022/01/25 06:49:35;;;;;;;18.63;11.73;;;-0.30;99.90;;;0.25;66.65;99094.75;5071116;28;20054;-40
2022/01/25 06:52:11;;;;;;;23.13;11.70;;;-0.30;99.90;;;0.26;67.06;99093.88;5089632;28;20315;-40
2022/01/25 06:54:39;;;;;;;19.83;12.47;;;-0.20;99.90;;;0.23;66.83;99097.44;5088453;28;20059;-40
2022/01/25 06:57:08;;;;;;;23.90;12.77;;;-0.20;99.90;;;0.22;66.71;99101.00;5089222;28;20230;-40
2022/01/25 06:59:36;;;;;;;19.20;11.87;;;-0.30;99.90;;;0.19;66.10;99094.13;5089314;28;20056;-40
2022/01/25 07:02:06;;;;;;;20.00;12.77;;;-0.30;99.90;;;0.17;66.57;99097.69;5089024;28;20432;-40
2022/01/25 07:04:35;;;;;;;18.10;10.90;;;-0.30;99.90;;;0.17;66.76;99095.06;5088807;28;20064;-40
2022/01/25 07:07:02;;;;;;;20.53;11.53;;;-0.30;99.90;;;0.14;66.43;99101.28;5088613;28;20052;-40
2022/01/25 07:09:30;;;;;;;21.13;11.97;;;-0.30;99.90;;;0.18;66.91;99097.63;5089249;28;20044;-40
2022/01/25 07:12:00;;;;;;;22.90;11.87;;;-0.20;99.90;;;0.22;67.10;99103.59;5088330;28;20048;-41
2022/01/25 07:14:27;;;;;;;20.80;11.30;;;-0.20;99.30;;;0.18;66.12;99099.41;5089310;28;20295;-40
2022/01/25 07:16:55;;;;;;;18.00;11.60;;;-0.30;98.90;;;0.20;66.79;99102.81;5088595;28;20052;-40
2022/01/25 07:19:24;;;;;;;17.83;11.07;;;-0.20;99.90;;;0.23;67.12;99102.69;5088373;28;20370;-40
2022/01/25 07:21:52;;;;;;;22.40;13.17;;;-0.10;99.90;;;0.25;67.54;99103.47;5088541;28;20223;-40
2022/01/25 07:24:20;;;;;;;22.10;13.20;;;-0.10;99.90;;;0.29;67.32;99105.06;5088829;28;20056;-40
2022/01/25 07:26:48;;;;;;;18.23;10.60;;;-0.10;99.90;;;0.35;67.08;99110.06;5097093;28;20054;-40
2022/01/25 07:29:17;;;;;;;17.13;10.87;;;0.00;99.90;;;0.35;66.82;99102.22;5109342;28;20047;-40
2022/01/25 07:31:45;;;;;;;19.80;12.70;;;0.00;99.90;;;0.37;67.15;99103.00;5108683;28;20054;-40
2022/01/25 07:34:13;;;;;;;23.27;12.20;;;0.00;99.90;;;0.44;67.58;99100.13;5109612;28;20253;-40
2022/01/25 07:36:44;;;;;;;17.57;11.10;;;0.10;99.90;;;0.49;67.19;99101.66;5108545;28;20342;-40
2022/01/25 07:39:26;;;;;;;27.83;14.00;;;0.20;99.90;;;0.58;67.63;99109.13;5108782;28;20334;-40
2022/01/25 07:42:00;;;;;;;26.23;15.33;;;0.30;99.90;;;0.64;67.78;99092.31;5106999;28;20048;-40
2022/01/25 07:44:40;;;;;;;25.73;14.50;;;0.30;99.90;;;0.69;67.76;99095.56;5105719;28;20052;-40
2022/01/25 07:47:08;;;;;;;29.33;15.43;;;0.40;99.90;;;0.75;68.20;99113.66;5109974;28;20055;-40
2022/01/25 07:49:38;;;;;;;25.10;14.90;;;0.40;99.90;;;0.80;67.51;99116.09;5107513;28;20059;-40
2022/01/25 07:52:13;;;;;;;22.70;15.33;;;0.40;99.90;;;0.85;68.45;99114.13;5107686;28;20055;-40
2022/01/25 07:54:42;;;;;;;30.77;16.30;;;0.50;99.90;;;0.89;67.80;99112.22;5107343;28;20051;-41
2022/01/25 07:57:10;;;;;;;32.97;19.00;;;0.60;99.90;;;0.94;68.03;99111.13;5107403;28;20044;-40
2022/01/25 07:59:37;;;;;;;32.60;17.83;;;0.60;99.90;;;1.00;68.50;99114.41;5105559;28;20381;-41
2022/01/25 08:02:05;;;;;;;27.43;17.10;;;0.70;99.90;;;1.03;68.60;99122.13;5120578;28;20047;-41
2022/01/25 08:04:46;;;;;;;36.53;18.67;;;0.70;99.90;;;1.04;68.26;99119.47;5116638;28;20055;-41
2022/01/25 08:07:38;;;;;;;34.53;17.20;;;0.70;99.90;;;1.10;68.66;99124.44;5119654;28;20058;-40
2022/01/25 08:10:16;;;;;;;46.60;18.20;;;0.80;99.90;;;1.09;68.41;99122.75;5121139;28;20242;-40
2022/01/25 08:13:00;;;;;;;43.10;19.25;;;0.80;99.90;;;1.15;68.28;99124.25;5118147;28;20070;-40
2022/01/25 08:15:48;;;;;;;38.23;18.23;;;0.90;99.90;;;1.20;68.35;99127.50;5083223;28;20086;-40
2022/01/25 08:18:33;;;;;;;50.73;17.97;;;0.90;99.90;;;1.22;68.55;99124.84;5088489;28;20047;-40
2022/01/25 08:21:15;;;;;;;49.10;19.67;;;0.90;99.90;;;1.23;69.02;99116.91;5089109;28;20063;-40
2022/01/25 08:23:57;;;;;;;43.80;19.60;;;0.90;99.90;;;1.25;68.55;99117.69;5069977;28;20678;-40
2022/01/25 08:26:40;;;;;;;41.07;18.50;;;0.90;99.90;;;1.28;68.97;99117.56;5090814;28;20060;-40
2022/01/25 08:29:18;;;;;;;56.60;19.30;;;1.00;99.90;;;1.33;68.74;99120.81;5101173;28;20357;-40
2022/01/25 08:32:05;;;;;;;53.80;19.53;;;1.00;99.90;;;1.39;68.77;99119.69;5087293;28;20044;-40
2022/01/25 08:34:47;;;;;;;37.37;16.90;;;1.00;99.90;;;1.42;69.37;99110.88;5064414;28;20078;-40
2022/01/25 08:37:40;;;;;;;40.30;18.50;;;1.10;99.90;;;1.40;68.81;99103.03;5073774;28;20044;-40
2022/01/25 08:40:14;;;;;;;37.85;17.85;;;1.00;99.90;;;1.41;69.11;99109.13;5106542;28;20773;-40
2022/01/25 08:42:57;;;;;;;38.13;20.03;;;1.00;99.90;;;1.41;69.17;99107.34;5085968;28;20084;-40
2022/01/25 08:45:39;;;;;;;74.77;21.40;;;1.00;99.90;;;1.41;68.75;99109.97;5105617;28;20375;-40
2022/01/25 08:48:10;;;;;;;39.47;18.17;;;1.00;99.90;;;1.44;69.16;99109.88;5107424;28;20059;-41
2022/01/25 08:50:38;;;;;;;42.57;18.10;;;1.10;99.90;;;1.48;69.18;99121.09;5104514;28;20242;-41
2022/01/25 08:53:23;;;;;;;39.07;17.87;;;1.10;99.90;;;1.48;69.24;99116.69;5107359;28;20413;-41
2022/01/25 08:56:07;;;;;;;40.53;17.47;;;1.10;99.90;;;1.48;69.02;99114.06;5107483;28;20043;-40
2022/01/25 08:58:49;;;;;;;34.70;16.97;;;1.00;99.90;;;1.49;68.92;99122.75;5008863;28;20061;-40
2022/01/25 09:01:17;;;;;;;34.70;16.90;;;1.10;99.90;;;1.48;69.17;99116.69;5021014;28;20057;-41
2022/01/25 09:03:46;;;;;;;36.47;17.53;;;1.10;99.90;;;1.50;69.21;99114.00;5024132;28;20072;-41
2022/01/25 09:06:13;;;;;;;35.57;16.20;;;1.00;99.90;;;1.50;69.01;99111.38;5023265;28;20072;-41
2022/01/25 09:08:41;;;;;;;44.57;19.00;;;1.10;99.90;;;1.51;69.13;99111.31;5023487;28;20378;-41
2022/01/25 09:11:09;;;;;;;37.00;18.87;;;1.10;99.90;;;1.55;69.31;99114.63;5023777;28;20069;-41
2022/01/25 09:13:39;;;;;;;36.03;17.87;;;1.20;99.90;;;1.59;69.27;99124.09;5022987;28;20072;-41
2022/01/25 09:16:07;;;;;;;39.23;18.03;;;1.30;99.90;;;1.68;69.27;99117.56;5022421;28;20064;-41
2022/01/25 09:18:37;;;;;;;30.37;17.77;;;1.40;99.90;;;1.74;69.27;99120.75;5024036;28;20372;-40
2022/01/25 09:21:04;;;;;;;32.27;17.40;;;1.50;99.90;;;1.81;69.32;99112.59;5021734;28;20403;-40
2022/01/25 09:23:33;;;;;;;45.60;18.13;;;1.50;99.90;;;1.83;69.22;99121.25;5032112;28;20053;-40
2022/01/25 09:26:02;;;;;;;36.13;16.20;;;1.50;99.90;;;1.83;69.20;99118.63;5024243;28;20053;-40
2022/01/25 09:28:30;;;;;;;38.73;16.80;;;1.50;99.90;;;1.74;68.65;99118.09;5025283;28;20064;-40
2022/01/25 09:30:58;;;;;;;38.97;19.27;;;1.30;99.90;;;1.70;68.83;99126.22;5024288;28;20332;-40
2022/01/25 09:33:27;;;;;;;36.03;17.27;;;1.20;99.90;;;1.67;68.73;99121.97;5023919;28;20378;-40
2022/01/25 09:35:56;;;;;;;39.70;18.70;;;1.20;99.90;;;1.67;69.15;99115.88;5055483;28;20051;-41
2022/01/25 09:38:25;;;;;;;35.50;18.47;;;1.20;99.90;;;1.68;69.20;99121.03;5106149;28;20224;-41
2022/01/25 09:40:53;;;;;;;56.53;19.53;;;1.20;99.90;;;1.68;69.35;99125.44;5106510;28;20047;-41
2022/01/25 09:43:23;;;;;;;37.73;19.10;;;1.20;99.90;;;1.66;69.26;99120.25;5105672;28;20383;-41
2022/01/25 09:45:51;;;;;;;39.00;17.97;;;1.20;99.90;;;1.70;69.25;99115.72;5106246;28;20400;-41
2022/01/25 09:48:20;;;;;;;40.90;17.93;;;1.20;99.90;;;1.69;69.16;99117.50;5106629;28;20257;-41
2022/01/25 09:50:48;;;;;;;40.20;19.20;;;1.20;99.90;;;1.71;68.92;99109.56;5105819;28;20043;-41
2022/01/25 09:53:17;;;;;;;50.03;17.70;;;1.30;99.90;;;1.72;69.23;99108.63;5106699;28;20046;-41
2022/01/25 09:55:46;;;;;;;39.20;18.30;;;1.40;99.90;;;1.73;69.43;99111.16;5107414;28;20250;-41
2022/01/25 09:58:14;;;;;;;44.20;19.30;;;1.30;99.90;;;1.73;69.28;99098.03;5089381;28;20374;-41
2022/01/25 10:00:45;;;;;;;40.77;19.43;;;1.30;99.90;;;1.78;69.70;99108.31;5110583;28;20060;-41
2022/01/25 10:03:24;;;;;;;37.80;17.90;;;1.40;99.90;;;1.81;69.35;99112.59;5110516;28;20042;-41
2022/01/25 10:05:55;;;;;;;38.60;16.60;;;1.40;99.90;;;1.84;69.19;99121.19;5110876;28;20051;-41
2022/01/25 10:08:28;;;;;;;32.37;17.33;;;1.40;99.90;;;1.90;69.32;99107.78;5092826;28;20346;-41
2022/01/25 10:11:07;;;;;;;36.53;17.17;;;1.50;99.90;;;1.93;69.20;99112.03;5110939;28;20043;-41
2022/01/25 10:13:39;;;;;;;34.40;17.27;;;1.60;99.90;;;1.96;69.56;99110.13;5110281;28;20464;-41
2022/01/25 10:16:21;;;;;;;42.17;20.53;;;1.60;99.90;;;2.04;69.35;99115.00;5110336;28;20053;-41
2022/01/25 10:18:59;;;;;;;36.97;17.83;;;1.70;99.90;;;2.06;69.51;99114.94;5093008;28;20369;-41
2022/01/25 10:21:38;;;;;;;33.93;17.00;;;1.80;99.90;;;2.11;69.10;99116.44;5108418;28;20062;-40
2022/01/25 10:24:27;;;;;;;33.33;17.17;;;1.80;99.90;;;2.13;69.20;99119.84;5111547;27;20054;-40
2022/01/25 10:27:00;;;;;;;37.33;18.23;;;1.80;99.90;;;2.13;69.44;99119.84;5104091;27;20070;-40
2022/01/25 10:29:34;;;;;;;39.03;18.83;;;1.80;99.90;;;2.18;69.04;99132.75;5089322;28;20052;-40
2022/01/25 10:32:10;;;;;;;;;;;1.90;99.90;;;2.15;69.28;99136.38;5089863;28;20563;-40
2022/01/25 10:34:48;;;;;;;39.90;20.47;;;1.80;99.90;;;2.22;69.26;99136.94;5089890;28;20185;-40
2022/01/25 10:37:24;;;;;;;36.37;20.67;;;1.90;99.90;;;2.26;69.42;99138.50;5089397;28;20036;-40
2022/01/25 10:39:53;;;;;;;37.37;18.27;;;2.00;99.90;;;2.28;69.43;99128.75;5089454;28;20059;-40
2022/01/25 10:42:31;;;;;;;45.27;22.67;;;2.00;99.90;;;2.34;69.20;99133.72;5069197;28;20052;-40
2022/01/25 10:45:16;;;;;;;39.97;20.10;;;2.10;99.90;;;2.40;69.30;99129.94;5087670;28;20056;-40
2022/01/25 10:47:51;;;;;;;41.50;19.97;;;2.20;99.90;;;2.44;69.31;99123.63;5089627;28;20238;-40
2022/01/25 10:50:31;;;;;;;41.97;20.87;;;2.20;99.90;;;2.49;69.28;99121.63;5088464;28;20054;-40
2022/01/25 10:53:15;;;;;;;44.40;20.90;;;2.30;99.90;;;2.51;69.47;99118.94;5088148;28;20051;-40
2022/01/25 10:55:51;;;;;;;36.63;18.73;;;2.30;99.90;;;2.53;69.33;99115.28;5088245;28;20060;-40
2022/01/25 10:58:20;;;;;;;49.53;20.73;;;2.30;99.90;;;2.47;69.30;99112.97;5090584;28;20046;-40
2022/01/25 11:00:51;;;;;;;46.13;21.70;;;2.10;99.90;;;2.47;69.35;99117.38;5088537;28;20077;-41
2022/01/25 11:03:38;;;;;;;61.37;20.83;;;2.20;99.90;;;2.46;69.15;99115.66;5087820;28;20056;-41
2022/01/25 11:06:19;;;;;;;50.20;21.27;;;2.10;99.90;;;2.43;69.19;99114.03;5089563;28;20396;-40
2022/01/25 11:08:53;;;;;;;45.70;21.87;;;2.00;99.90;;;2.47;69.39;99115.59;5076766;28;20054;-41
2022/01/25 11:11:34;;;;;;;47.95;22.10;;;2.10;99.90;;;2.48;69.41;99114.69;5099176;28;20250;-40
2022/01/25 11:16:55;;;;;;;39.80;20.77;;;2.20;99.90;;;2.56;69.33;99106.41;5072622;28;20104;-40
2022/01/25 11:19:25;;;;;;;43.80;22.27;;;2.20;99.90;;;2.57;69.54;99100.22;5101617;28;20246;-40
2022/01/25 11:21:56;;;;;;;45.70;22.83;;;2.30;99.90;;;2.61;69.55;99108.81;5083926;28;20350;-40
2022/01/25 11:24:24;;;;;;;47.10;20.77;;;2.20;99.90;;;2.62;69.71;99102.59;5099698;28;20208;-40
2022/01/25 11:26:53;;;;;;;44.60;20.67;;;2.30;99.90;;;2.57;69.61;99108.09;5086798;28;20306;-40
2022/01/25 11:29:21;;;;;;;58.07;19.57;;;2.20;99.90;;;2.58;69.35;99107.19;5092689;28;20330;-40
2022/01/25 11:31:58;;;;;;;43.80;20.77;;;2.30;99.90;;;2.47;69.59;99105.06;5109483;27;20047;-40
2022/01/25 11:34:28;;;;;;;47.30;22.53;;;2.10;99.90;;;2.46;69.43;99098.13;5116608;27;20051;-40
2022/01/25 11:37:04;;;;;;;60.30;34.17;;;2.00;99.90;;;2.45;69.50;99091.16;5111299;27;20058;-40
2022/01/25 11:39:38;;;;;;;46.27;22.73;;;2.00;99.90;;;2.46;69.62;99095.50;5130131;27;20435;-40
2022/01/25 11:42:25;;;;;;;50.43;22.37;;;2.10;99.90;;;2.40;69.52;99089.69;5129850;27;20047;-40
2022/01/25 11:44:58;;;;;;;42.60;20.50;;;2.00;99.90;;;2.43;69.81;99093.00;5129586;27;20279;-40
2022/01/25 11:47:36;;;;;;;42.03;21.57;;;2.10;99.90;;;2.44;69.60;99093.84;5130084;27;20054;-40
2022/01/25 11:50:08;;;;;;;40.20;21.80;;;2.00;99.90;;;2.49;69.64;99092.72;5128402;27;20050;-40
2022/01/25 11:52:51;;;;;;;41.23;20.73;;;2.10;99.90;;;2.49;70.06;99095.34;5129241;27;20261;-39
2022/01/25 11:55:33;;;;;;;52.40;20.27;;;2.20;99.90;;;2.51;69.95;99093.47;5129878;27;20345;-40
2022/01/25 11:58:15;;;;;;;36.53;19.93;;;2.20;99.90;;;2.53;69.91;99093.41;5129951;27;20054;-40
2022/01/25 12:01:18;;;;;;;42.77;19.80;;;2.20;99.90;;;2.61;69.85;99101.75;5130108;27;20054;-40
2022/01/25 12:03:58;;;;;;;52.93;19.03;;;2.30;99.90;;;2.54;69.36;99103.03;5128539;27;20053;-40
2022/01/25 12:06:39;;;;;;;53.77;20.27;;;2.30;99.90;;;2.32;69.61;99098.78;5128907;27;20046;-39
2022/01/25 12:09:30;;;;;;;51.93;18.57;;;1.90;99.90;;;2.36;69.68;99096.84;5128598;27;20051;-40
2022/01/25 12:12:01;;;;;;;49.90;18.60;;;1.90;99.90;;;2.28;69.78;99102.47;5129841;27;20043;-39
2022/01/25 12:14:53;;;;;;;56.03;20.40;;;1.90;99.90;;;2.21;69.54;99103.72;5128317;27;20051;-40
2022/01/25 12:17:25;;;;;;;74.37;21.23;;;1.90;99.90;;;2.12;69.64;99101.53;5129456;27;20057;-39
2022/01/25 12:19:59;;;;;;;53.23;18.37;;;1.70;99.90;;;2.06;69.81;99099.19;5128835;27;20047;-39
2022/01/25 12:25:25;;;;;;;35.80;17.77;;;1.70;99.90;;;2.05;70.46;99100.09;5129015;27;20055;-39
2022/01/25 12:28:07;;;;;;;43.73;19.33;;;1.70;99.90;;;2.06;70.19;99093.94;5110424;27;20055;-39
2022/01/25 12:30:39;;;;;;;60.70;22.77;;;1.70;99.90;;;2.07;70.34;99096.47;5106761;28;20055;-40
2022/01/25 12:33:32;;;;;;;69.33;21.93;;;1.70;99.90;;;2.09;70.21;99091.16;5107565;28;20055;-40